sensor_id;sensor_type;location;lat;lon;timestamp;P1;durP1;ratioP1;P2;durP2;ratioP2
16862;SDS011;52193;48.216;-1.698;2022-12-18T00:02:11;24.38;;;19.60;;
16862;SDS011;52193;48.216;-1.698;2022-12-18T00:04:39;26.45;;;20.42;;
16862;SDS011;52193;48.216;-1.698;2022-12-18T00:07:07;25.52;;;19.42;;
16862;SDS011;52193;48.216;-1.698;2022-12-18T00:09:34;25.83;;;20.02;;
16862;SDS011;52193;48.216;-1.698;2022-12-18T00:12:01;23.75;;;19.85;;
16862;SDS011;52193;48.216;-1.698;2022-12-18T00:14:28;24.98;;;20.02;;
16862;SDS011;52193;48.216;-1.698;2022-12-18T00:16:55;24.73;;;19.70;;
16862;SDS011;52193;48.216;-1.698;2022-12-18T00:19:23;25.48;;;21.02;;
16862;SDS011;52193;48.216;-1.698;2022-12-18T00:21:50;23.38;;;20.05;;
16862;SDS011;52193;48.216;-1.698;2022-12-18T00:24:18;24.23;;;20.33;;
16862;SDS011;52193;48.216;-1.698;2022-12-18T00:26:45;26.50;;;21.02;;
16862;SDS011;52193;48.216;-1.698;2022-12-18T00:29:13;25.08;;;20.13;;
16862;SDS011;52193;48.216;-1.698;2022-12-18T00:31:40;24.50;;;19.95;;
16862;SDS011;52193;48.216;-1.698;2022-12-18T00:34:09;24.08;;;20.20;;
16862;SDS011;52193;48.216;-1.698;2022-12-18T00:36:37;27.75;;;20.25;;
16862;SDS011;52193;48.216;-1.698;2022-12-18T00:39:05;24.08;;;19.88;;
16862;SDS011;52193;48.216;-1.698;2022-12-18T00:41:33;25.30;;;19.85;;
16862;SDS011;52193;48.216;-1.698;2022-12-18T00:44:18;28.17;;;21.60;;
16862;SDS011;52193;48.216;-1.698;2022-12-18T00:46:45;26.00;;;20.15;;
16862;SDS011;52193;48.216;-1.698;2022-12-18T00:49:13;25.50;;;20.33;;
16862;SDS011;52193;48.216;-1.698;2022-12-18T00:51:40;27.65;;;20.15;;
16862;SDS011;52193;48.216;-1.698;2022-12-18T00:54:07;25.13;;;19.63;;
16862;SDS011;52193;48.216;-1.698;2022-12-18T00:56:37;29.30;;;20.88;;
16862;SDS011;52193;48.216;-1.698;2022-12-18T00:59:05;23.90;;;20.05;;
16862;SDS011;52193;48.216;-1.698;2022-12-18T01:01:32;25.55;;;20.20;;
16862;SDS011;52193;48.216;-1.698;2022-12-18T01:03:59;23.83;;;18.67;;
16862;SDS011;52193;48.216;-1.698;2022-12-18T01:06:27;26.40;;;19.88;;
16862;SDS011;52193;48.216;-1.698;2022-12-18T01:08:54;27.98;;;19.38;;
16862;SDS011;52193;48.216;-1.698;2022-12-18T01:11:22;25.52;;;18.50;;
16862;SDS011;52193;48.216;-1.698;2022-12-18T01:13:50;24.52;;;18.73;;
16862;SDS011;52193;48.216;-1.698;2022-12-18T01:16:18;26.85;;;18.65;;
16862;SDS011;52193;48.216;-1.698;2022-12-18T01:18:45;27.30;;;20.50;;
16862;SDS011;52193;48.216;-1.698;2022-12-18T01:21:13;23.60;;;18.75;;
16862;SDS011;52193;48.216;-1.698;2022-12-18T01:23:44;26.23;;;19.52;;
16862;SDS011;52193;48.216;-1.698;2022-12-18T01:26:12;24.17;;;19.17;;
16862;SDS011;52193;48.216;-1.698;2022-12-18T01:28:40;22.83;;;19.15;;
16862;SDS011;52193;48.216;-1.698;2022-12-18T01:31:12;24.67;;;19.55;;
16862;SDS011;52193;48.216;-1.698;2022-12-18T01:33:41;27.17;;;20.95;;
16862;SDS011;52193;48.216;-1.698;2022-12-18T01:36:08;25.67;;;19.73;;
16862;SDS011;52193;48.216;-1.698;2022-12-18T01:38:41;24.38;;;19.42;;
16862;SDS011;52193;48.216;-1.698;2022-12-18T01:41:08;23.33;;;19.15;;
16862;SDS011;52193;48.216;-1.698;2022-12-18T01:43:42;24.58;;;18.98;;
16862;SDS011;52193;48.216;-1.698;2022-12-18T01:46:10;23.42;;;19.55;;
16862;SDS011;52193;48.216;-1.698;2022-12-18T01:48:39;24.20;;;19.42;;
16862;SDS011;52193;48.216;-1.698;2022-12-18T01:51:07;25.20;;;20.13;;
16862;SDS011;52193;48.216;-1.698;2022-12-18T01:53:36;25.27;;;19.90;;
16862;SDS011;52193;48.216;-1.698;2022-12-18T01:56:05;25.25;;;18.98;;
16862;SDS011;52193;48.216;-1.698;2022-12-18T01:58:35;24.33;;;18.48;;
16862;SDS011;52193;48.216;-1.698;2022-12-18T02:01:12;25.52;;;19.48;;
16862;SDS011;52193;48.216;-1.698;2022-12-18T02:03:40;25.75;;;19.77;;
16862;SDS011;52193;48.216;-1.698;2022-12-18T02:06:10;29.55;;;21.55;;
16862;SDS011;52193;48.216;-1.698;2022-12-18T02:08:43;23.98;;;19.35;;
16862;SDS011;52193;48.216;-1.698;2022-12-18T02:11:23;25.50;;;20.02;;
16862;SDS011;52193;48.216;-1.698;2022-12-18T02:14:00;24.00;;;18.45;;
16862;SDS011;52193;48.216;-1.698;2022-12-18T02:16:38;25.60;;;18.35;;
16862;SDS011;52193;48.216;-1.698;2022-12-18T02:19:14;25.00;;;18.70;;
16862;SDS011;52193;48.216;-1.698;2022-12-18T02:22:07;25.20;;;18.92;;
16862;SDS011;52193;48.216;-1.698;2022-12-18T02:24:51;26.90;;;18.48;;
16862;SDS011;52193;48.216;-1.698;2022-12-18T02:27:27;24.02;;;18.73;;
16862;SDS011;52193;48.216;-1.698;2022-12-18T02:29:56;24.30;;;18.67;;
16862;SDS011;52193;48.216;-1.698;2022-12-18T02:32:27;22.90;;;19.38;;
16862;SDS011;52193;48.216;-1.698;2022-12-18T02:34:57;23.33;;;18.52;;
16862;SDS011;52193;48.216;-1.698;2022-12-18T02:37:28;23.80;;;19.95;;
16862;SDS011;52193;48.216;-1.698;2022-12-18T02:39:57;25.13;;;19.92;;
16862;SDS011;52193;48.216;-1.698;2022-12-18T02:42:25;25.65;;;19.27;;
16862;SDS011;52193;48.216;-1.698;2022-12-18T02:44:55;26.60;;;19.55;;
16862;SDS011;52193;48.216;-1.698;2022-12-18T02:47:24;25.63;;;18.95;;
16862;SDS011;52193;48.216;-1.698;2022-12-18T02:49:56;24.00;;;19.40;;
16862;SDS011;52193;48.216;-1.698;2022-12-18T02:52:31;24.55;;;18.63;;
16862;SDS011;52193;48.216;-1.698;2022-12-18T02:55:07;22.95;;;19.38;;
16862;SDS011;52193;48.216;-1.698;2022-12-18T02:57:46;27.58;;;21.92;;
16862;SDS011;52193;48.216;-1.698;2022-12-18T03:00:18;27.23;;;20.38;;
16862;SDS011;52193;48.216;-1.698;2022-12-18T03:02:48;27.02;;;20.00;;
16862;SDS011;52193;48.216;-1.698;2022-12-18T03:05:21;23.92;;;18.40;;
16862;SDS011;52193;48.216;-1.698;2022-12-18T03:07:53;28.13;;;20.48;;
16862;SDS011;52193;48.216;-1.698;2022-12-18T03:10:26;27.45;;;19.23;;
16862;SDS011;52193;48.216;-1.698;2022-12-18T03:12:58;23.73;;;18.95;;
16862;SDS011;52193;48.216;-1.698;2022-12-18T03:15:28;26.15;;;19.85;;
16862;SDS011;52193;48.216;-1.698;2022-12-18T03:18:00;24.50;;;19.30;;
16862;SDS011;52193;48.216;-1.698;2022-12-18T03:20:30;22.75;;;18.77;;
16862;SDS011;52193;48.216;-1.698;2022-12-18T03:23:02;22.80;;;18.60;;
16862;SDS011;52193;48.216;-1.698;2022-12-18T03:25:33;24.20;;;19.10;;
16862;SDS011;52193;48.216;-1.698;2022-12-18T03:28:06;23.83;;;19.42;;
16862;SDS011;52193;48.216;-1.698;2022-12-18T03:30:35;24.42;;;19.90;;
16862;SDS011;52193;48.216;-1.698;2022-12-18T03:33:05;24.60;;;19.08;;
16862;SDS011;52193;48.216;-1.698;2022-12-18T03:35:36;23.65;;;18.30;;
16862;SDS011;52193;48.216;-1.698;2022-12-18T03:38:06;27.45;;;19.08;;
16862;SDS011;52193;48.216;-1.698;2022-12-18T03:40:35;23.70;;;18.83;;
16862;SDS011;52193;48.216;-1.698;2022-12-18T03:43:14;23.02;;;18.73;;
16862;SDS011;52193;48.216;-1.698;2022-12-18T03:45:48;23.52;;;18.90;;
16862;SDS011;52193;48.216;-1.698;2022-12-18T03:48:19;25.98;;;18.83;;
16862;SDS011;52193;48.216;-1.698;2022-12-18T03:50:55;22.90;;;18.35;;
16862;SDS011;52193;48.216;-1.698;2022-12-18T03:53:28;22.15;;;17.77;;
16862;SDS011;52193;48.216;-1.698;2022-12-18T03:56:01;25.88;;;18.40;;
16862;SDS011;52193;48.216;-1.698;2022-12-18T03:58:31;25.02;;;17.88;;
16862;SDS011;52193;48.216;-1.698;2022-12-18T04:01:01;22.00;;;17.55;;
16862;SDS011;52193;48.216;-1.698;2022-12-18T04:03:35;22.13;;;18.05;;
16862;SDS011;52193;48.216;-1.698;2022-12-18T04:06:03;23.65;;;18.17;;
16862;SDS011;52193;48.216;-1.698;2022-12-18T04:08:31;24.42;;;18.38;;
16862;SDS011;52193;48.216;-1.698;2022-12-18T04:11:00;25.35;;;19.00;;
16862;SDS011;52193;48.216;-1.698;2022-12-18T04:13:29;23.90;;;18.10;;
16862;SDS011;52193;48.216;-1.698;2022-12-18T04:15:59;22.77;;;18.45;;
16862;SDS011;52193;48.216;-1.698;2022-12-18T04:18:26;23.02;;;18.70;;
16862;SDS011;52193;48.216;-1.698;2022-12-18T04:20:53;23.15;;;18.15;;
16862;SDS011;52193;48.216;-1.698;2022-12-18T04:23:20;22.90;;;18.13;;
16862;SDS011;52193;48.216;-1.698;2022-12-18T04:25:47;20.15;;;17.50;;
16862;SDS011;52193;48.216;-1.698;2022-12-18T04:28:14;23.23;;;17.95;;
16862;SDS011;52193;48.216;-1.698;2022-12-18T04:30:42;23.17;;;17.65;;
16862;SDS011;52193;48.216;-1.698;2022-12-18T04:33:09;21.00;;;17.23;;
16862;SDS011;52193;48.216;-1.698;2022-12-18T04:35:37;21.95;;;16.63;;
16862;SDS011;52193;48.216;-1.698;2022-12-18T04:38:05;20.70;;;15.82;;
16862;SDS011;52193;48.216;-1.698;2022-12-18T04:40:33;23.75;;;17.67;;
16862;SDS011;52193;48.216;-1.698;2022-12-18T04:43:00;24.27;;;18.10;;
16862;SDS011;52193;48.216;-1.698;2022-12-18T04:45:27;22.98;;;18.05;;
16862;SDS011;52193;48.216;-1.698;2022-12-18T04:47:58;22.02;;;16.48;;
16862;SDS011;52193;48.216;-1.698;2022-12-18T04:50:25;23.88;;;17.73;;
16862;SDS011;52193;48.216;-1.698;2022-12-18T04:52:52;25.00;;;18.23;;
16862;SDS011;52193;48.216;-1.698;2022-12-18T04:55:19;24.88;;;18.45;;
16862;SDS011;52193;48.216;-1.698;2022-12-18T04:57:46;21.92;;;17.92;;
16862;SDS011;52193;48.216;-1.698;2022-12-18T05:00:13;22.25;;;17.83;;
16862;SDS011;52193;48.216;-1.698;2022-12-18T05:02:41;21.90;;;16.77;;
16862;SDS011;52193;48.216;-1.698;2022-12-18T05:05:09;24.10;;;18.73;;
16862;SDS011;52193;48.216;-1.698;2022-12-18T05:07:36;24.48;;;18.63;;
16862;SDS011;52193;48.216;-1.698;2022-12-18T05:10:04;23.13;;;18.30;;
16862;SDS011;52193;48.216;-1.698;2022-12-18T05:12:33;23.27;;;18.70;;
16862;SDS011;52193;48.216;-1.698;2022-12-18T05:15:20;24.15;;;19.20;;
16862;SDS011;52193;48.216;-1.698;2022-12-18T05:17:47;21.98;;;18.30;;
16862;SDS011;52193;48.216;-1.698;2022-12-18T05:20:15;22.80;;;18.83;;
16862;SDS011;52193;48.216;-1.698;2022-12-18T05:22:43;23.77;;;17.98;;
16862;SDS011;52193;48.216;-1.698;2022-12-18T05:25:10;23.90;;;18.00;;
16862;SDS011;52193;48.216;-1.698;2022-12-18T05:27:37;22.20;;;18.15;;
16862;SDS011;52193;48.216;-1.698;2022-12-18T05:30:04;21.83;;;17.27;;
16862;SDS011;52193;48.216;-1.698;2022-12-18T05:32:32;24.05;;;17.70;;
16862;SDS011;52193;48.216;-1.698;2022-12-18T05:34:59;22.80;;;16.60;;
16862;SDS011;52193;48.216;-1.698;2022-12-18T05:37:27;21.15;;;16.52;;
16862;SDS011;52193;48.216;-1.698;2022-12-18T05:39:54;23.05;;;17.98;;
16862;SDS011;52193;48.216;-1.698;2022-12-18T05:42:21;22.45;;;16.02;;
16862;SDS011;52193;48.216;-1.698;2022-12-18T05:44:48;23.13;;;18.17;;
16862;SDS011;52193;48.216;-1.698;2022-12-18T05:47:15;23.70;;;18.23;;
16862;SDS011;52193;48.216;-1.698;2022-12-18T05:49:42;23.75;;;18.30;;
16862;SDS011;52193;48.216;-1.698;2022-12-18T05:52:09;21.63;;;17.70;;
16862;SDS011;52193;48.216;-1.698;2022-12-18T05:54:37;21.70;;;17.73;;
16862;SDS011;52193;48.216;-1.698;2022-12-18T05:57:04;22.90;;;17.55;;
16862;SDS011;52193;48.216;-1.698;2022-12-18T05:59:31;22.08;;;17.77;;
16862;SDS011;52193;48.216;-1.698;2022-12-18T06:01:58;19.45;;;17.30;;
16862;SDS011;52193;48.216;-1.698;2022-12-18T06:04:26;19.27;;;16.27;;
16862;SDS011;52193;48.216;-1.698;2022-12-18T06:06:53;21.88;;;18.45;;
16862;SDS011;52193;48.216;-1.698;2022-12-18T06:09:20;19.58;;;17.48;;
16862;SDS011;52193;48.216;-1.698;2022-12-18T06:11:49;21.75;;;18.20;;
16862;SDS011;52193;48.216;-1.698;2022-12-18T06:14:18;21.98;;;17.17;;
16862;SDS011;52193;48.216;-1.698;2022-12-18T06:16:45;21.23;;;16.98;;
16862;SDS011;52193;48.216;-1.698;2022-12-18T06:19:14;21.13;;;18.00;;
16862;SDS011;52193;48.216;-1.698;2022-12-18T06:21:42;20.40;;;18.15;;
16862;SDS011;52193;48.216;-1.698;2022-12-18T06:24:09;21.83;;;17.80;;
16862;SDS011;52193;48.216;-1.698;2022-12-18T06:26:37;22.63;;;17.50;;
16862;SDS011;52193;48.216;-1.698;2022-12-18T06:29:06;23.25;;;18.10;;
16862;SDS011;52193;48.216;-1.698;2022-12-18T06:31:33;22.90;;;17.02;;
16862;SDS011;52193;48.216;-1.698;2022-12-18T06:34:01;21.90;;;18.20;;
16862;SDS011;52193;48.216;-1.698;2022-12-18T06:36:29;21.73;;;18.05;;
16862;SDS011;52193;48.216;-1.698;2022-12-18T06:38:57;21.80;;;16.92;;
16862;SDS011;52193;48.216;-1.698;2022-12-18T06:41:24;23.30;;;18.60;;
16862;SDS011;52193;48.216;-1.698;2022-12-18T06:43:51;21.75;;;17.60;;
16862;SDS011;52193;48.216;-1.698;2022-12-18T06:46:20;21.20;;;17.45;;
16862;SDS011;52193;48.216;-1.698;2022-12-18T06:48:47;20.33;;;17.30;;
16862;SDS011;52193;48.216;-1.698;2022-12-18T06:51:17;20.67;;;16.67;;
16862;SDS011;52193;48.216;-1.698;2022-12-18T06:53:44;21.73;;;16.67;;
16862;SDS011;52193;48.216;-1.698;2022-12-18T06:56:11;19.10;;;16.88;;
16862;SDS011;52193;48.216;-1.698;2022-12-18T06:58:38;22.83;;;17.52;;
16862;SDS011;52193;48.216;-1.698;2022-12-18T07:01:06;20.95;;;17.27;;
16862;SDS011;52193;48.216;-1.698;2022-12-18T07:03:36;21.85;;;17.58;;
16862;SDS011;52193;48.216;-1.698;2022-12-18T07:06:03;21.13;;;15.95;;
16862;SDS011;52193;48.216;-1.698;2022-12-18T07:08:31;21.25;;;16.85;;
16862;SDS011;52193;48.216;-1.698;2022-12-18T07:10:58;20.33;;;16.92;;
16862;SDS011;52193;48.216;-1.698;2022-12-18T07:13:28;23.13;;;17.98;;
16862;SDS011;52193;48.216;-1.698;2022-12-18T07:15:55;20.15;;;17.45;;
16862;SDS011;52193;48.216;-1.698;2022-12-18T07:18:30;19.65;;;16.35;;
16862;SDS011;52193;48.216;-1.698;2022-12-18T07:20:59;22.15;;;17.20;;
16862;SDS011;52193;48.216;-1.698;2022-12-18T07:23:29;21.65;;;17.35;;
16862;SDS011;52193;48.216;-1.698;2022-12-18T07:26:00;20.45;;;16.77;;
16862;SDS011;52193;48.216;-1.698;2022-12-18T07:28:28;18.75;;;15.85;;
16862;SDS011;52193;48.216;-1.698;2022-12-18T07:30:55;19.10;;;16.95;;
16862;SDS011;52193;48.216;-1.698;2022-12-18T07:33:22;17.95;;;15.55;;
16862;SDS011;52193;48.216;-1.698;2022-12-18T07:35:49;18.70;;;16.05;;
16862;SDS011;52193;48.216;-1.698;2022-12-18T07:38:17;19.77;;;16.65;;
16862;SDS011;52193;48.216;-1.698;2022-12-18T07:40:44;21.90;;;17.40;;
16862;SDS011;52193;48.216;-1.698;2022-12-18T07:43:11;20.23;;;18.42;;
16862;SDS011;52193;48.216;-1.698;2022-12-18T07:45:38;18.77;;;16.77;;
16862;SDS011;52193;48.216;-1.698;2022-12-18T07:48:05;18.77;;;16.40;;
16862;SDS011;52193;48.216;-1.698;2022-12-18T07:50:32;21.45;;;17.15;;
16862;SDS011;52193;48.216;-1.698;2022-12-18T07:52:59;20.77;;;17.55;;
16862;SDS011;52193;48.216;-1.698;2022-12-18T07:55:29;20.48;;;16.75;;
16862;SDS011;52193;48.216;-1.698;2022-12-18T07:57:59;21.90;;;17.70;;
16862;SDS011;52193;48.216;-1.698;2022-12-18T08:00:27;22.23;;;17.75;;
16862;SDS011;52193;48.216;-1.698;2022-12-18T08:02:54;21.13;;;19.40;;
16862;SDS011;52193;48.216;-1.698;2022-12-18T08:05:21;21.48;;;18.10;;
16862;SDS011;52193;48.216;-1.698;2022-12-18T08:07:48;21.30;;;17.65;;
16862;SDS011;52193;48.216;-1.698;2022-12-18T08:10:15;20.98;;;17.50;;
16862;SDS011;52193;48.216;-1.698;2022-12-18T08:12:44;19.25;;;16.48;;
16862;SDS011;52193;48.216;-1.698;2022-12-18T08:15:11;18.45;;;15.85;;
16862;SDS011;52193;48.216;-1.698;2022-12-18T08:17:38;20.42;;;16.73;;
16862;SDS011;52193;48.216;-1.698;2022-12-18T08:20:05;21.25;;;17.60;;
16862;SDS011;52193;48.216;-1.698;2022-12-18T08:22:33;19.55;;;17.40;;
16862;SDS011;52193;48.216;-1.698;2022-12-18T08:25:01;19.42;;;16.90;;
16862;SDS011;52193;48.216;-1.698;2022-12-18T08:27:27;22.23;;;20.05;;
16862;SDS011;52193;48.216;-1.698;2022-12-18T08:29:56;20.42;;;18.25;;
16862;SDS011;52193;48.216;-1.698;2022-12-18T08:32:23;21.95;;;17.27;;
16862;SDS011;52193;48.216;-1.698;2022-12-18T08:34:51;21.23;;;17.85;;
16862;SDS011;52193;48.216;-1.698;2022-12-18T08:37:18;19.77;;;17.27;;
16862;SDS011;52193;48.216;-1.698;2022-12-18T08:39:45;21.15;;;17.80;;
16862;SDS011;52193;48.216;-1.698;2022-12-18T08:42:12;21.02;;;17.23;;
16862;SDS011;52193;48.216;-1.698;2022-12-18T08:44:58;21.30;;;17.85;;
16862;SDS011;52193;48.216;-1.698;2022-12-18T08:47:25;22.05;;;18.65;;
16862;SDS011;52193;48.216;-1.698;2022-12-18T08:49:52;20.98;;;19.20;;
16862;SDS011;52193;48.216;-1.698;2022-12-18T08:52:19;20.83;;;17.83;;
16862;SDS011;52193;48.216;-1.698;2022-12-18T08:54:46;20.40;;;18.23;;
16862;SDS011;52193;48.216;-1.698;2022-12-18T08:57:13;20.88;;;19.00;;
16862;SDS011;52193;48.216;-1.698;2022-12-18T08:59:41;21.30;;;19.08;;
16862;SDS011;52193;48.216;-1.698;2022-12-18T09:02:10;20.50;;;17.42;;
16862;SDS011;52193;48.216;-1.698;2022-12-18T09:04:37;21.77;;;19.90;;
16862;SDS011;52193;48.216;-1.698;2022-12-18T09:07:05;20.85;;;18.15;;
16862;SDS011;52193;48.216;-1.698;2022-12-18T09:09:32;21.00;;;19.10;;
16862;SDS011;52193;48.216;-1.698;2022-12-18T09:11:59;20.73;;;18.10;;
16862;SDS011;52193;48.216;-1.698;2022-12-18T09:14:26;21.20;;;18.45;;
16862;SDS011;52193;48.216;-1.698;2022-12-18T09:16:53;20.42;;;18.15;;
16862;SDS011;52193;48.216;-1.698;2022-12-18T09:19:21;20.05;;;17.80;;
16862;SDS011;52193;48.216;-1.698;2022-12-18T09:21:48;22.00;;;20.10;;
16862;SDS011;52193;48.216;-1.698;2022-12-18T09:24:15;20.02;;;17.52;;
16862;SDS011;52193;48.216;-1.698;2022-12-18T09:26:42;21.38;;;18.83;;
16862;SDS011;52193;48.216;-1.698;2022-12-18T09:29:10;21.23;;;18.75;;
16862;SDS011;52193;48.216;-1.698;2022-12-18T09:31:37;19.95;;;17.80;;
16862;SDS011;52193;48.216;-1.698;2022-12-18T09:34:05;21.25;;;19.33;;
16862;SDS011;52193;48.216;-1.698;2022-12-18T09:36:33;20.05;;;17.90;;
16862;SDS011;52193;48.216;-1.698;2022-12-18T09:39:00;22.17;;;20.20;;
16862;SDS011;52193;48.216;-1.698;2022-12-18T09:41:36;21.90;;;18.20;;
16862;SDS011;52193;48.216;-1.698;2022-12-18T09:44:10;22.90;;;20.77;;
16862;SDS011;52193;48.216;-1.698;2022-12-18T09:46:43;23.90;;;19.55;;
16862;SDS011;52193;48.216;-1.698;2022-12-18T09:49:13;21.40;;;18.90;;
16862;SDS011;52193;48.216;-1.698;2022-12-18T09:51:46;21.48;;;19.45;;
16862;SDS011;52193;48.216;-1.698;2022-12-18T09:54:18;27.83;;;19.77;;
16862;SDS011;52193;48.216;-1.698;2022-12-18T09:56:50;27.35;;;19.58;;
16862;SDS011;52193;48.216;-1.698;2022-12-18T09:59:18;24.73;;;18.83;;
16862;SDS011;52193;48.216;-1.698;2022-12-18T10:01:49;24.95;;;20.10;;
16862;SDS011;52193;48.216;-1.698;2022-12-18T10:04:16;24.88;;;22.38;;
16862;SDS011;52193;48.216;-1.698;2022-12-18T10:06:46;30.30;;;21.52;;
16862;SDS011;52193;48.216;-1.698;2022-12-18T10:09:27;23.67;;;21.27;;
16862;SDS011;52193;48.216;-1.698;2022-12-18T10:12:01;26.98;;;19.52;;
16862;SDS011;52193;48.216;-1.698;2022-12-18T10:14:34;25.05;;;20.05;;
16862;SDS011;52193;48.216;-1.698;2022-12-18T10:17:18;25.63;;;19.75;;
16862;SDS011;52193;48.216;-1.698;2022-12-18T10:19:52;23.77;;;18.75;;
16862;SDS011;52193;48.216;-1.698;2022-12-18T10:22:32;27.20;;;19.48;;
16862;SDS011;52193;48.216;-1.698;2022-12-18T10:25:15;24.02;;;19.13;;
16862;SDS011;52193;48.216;-1.698;2022-12-18T10:27:47;22.42;;;18.73;;
16862;SDS011;52193;48.216;-1.698;2022-12-18T10:30:18;27.27;;;21.45;;
16862;SDS011;52193;48.216;-1.698;2022-12-18T10:32:46;30.23;;;20.42;;
16862;SDS011;52193;48.216;-1.698;2022-12-18T10:35:15;24.13;;;19.10;;
16862;SDS011;52193;48.216;-1.698;2022-12-18T10:38:03;23.38;;;21.08;;
16862;SDS011;52193;48.216;-1.698;2022-12-18T10:40:50;23.38;;;19.27;;
16862;SDS011;52193;48.216;-1.698;2022-12-18T10:43:20;25.77;;;19.83;;
16862;SDS011;52193;48.216;-1.698;2022-12-18T10:48:41;21.52;;;17.80;;
16862;SDS011;52193;48.216;-1.698;2022-12-18T10:51:19;20.98;;;18.65;;
16862;SDS011;52193;48.216;-1.698;2022-12-18T10:53:53;21.20;;;17.73;;
16862;SDS011;52193;48.216;-1.698;2022-12-18T10:56:23;33.42;;;19.73;;
16862;SDS011;52193;48.216;-1.698;2022-12-18T10:58:57;23.00;;;18.45;;
16862;SDS011;52193;48.216;-1.698;2022-12-18T11:01:26;20.55;;;17.77;;
16862;SDS011;52193;48.216;-1.698;2022-12-18T11:04:00;20.52;;;17.30;;
16862;SDS011;52193;48.216;-1.698;2022-12-18T11:06:33;19.25;;;17.17;;
16862;SDS011;52193;48.216;-1.698;2022-12-18T11:09:03;20.23;;;18.10;;
16862;SDS011;52193;48.216;-1.698;2022-12-18T11:11:31;21.55;;;19.45;;
16862;SDS011;52193;48.216;-1.698;2022-12-18T11:14:01;20.95;;;18.95;;
16862;SDS011;52193;48.216;-1.698;2022-12-18T11:16:31;21.10;;;18.55;;
16862;SDS011;52193;48.216;-1.698;2022-12-18T11:19:12;20.48;;;18.27;;
16862;SDS011;52193;48.216;-1.698;2022-12-18T11:21:47;22.55;;;18.00;;
16862;SDS011;52193;48.216;-1.698;2022-12-18T11:24:19;20.63;;;18.52;;
16862;SDS011;52193;48.216;-1.698;2022-12-18T11:26:49;20.20;;;18.02;;
16862;SDS011;52193;48.216;-1.698;2022-12-18T11:29:17;22.35;;;18.30;;
16862;SDS011;52193;48.216;-1.698;2022-12-18T11:31:48;21.38;;;18.75;;
16862;SDS011;52193;48.216;-1.698;2022-12-18T11:34:16;20.92;;;18.65;;
16862;SDS011;52193;48.216;-1.698;2022-12-18T11:36:49;20.70;;;17.27;;
16862;SDS011;52193;48.216;-1.698;2022-12-18T11:39:17;19.25;;;17.15;;
16862;SDS011;52193;48.216;-1.698;2022-12-18T11:41:52;20.38;;;18.17;;
16862;SDS011;52193;48.216;-1.698;2022-12-18T11:44:38;20.40;;;18.23;;
16862;SDS011;52193;48.216;-1.698;2022-12-18T11:47:11;17.88;;;15.98;;
16862;SDS011;52193;48.216;-1.698;2022-12-18T11:49:45;20.90;;;17.52;;
16862;SDS011;52193;48.216;-1.698;2022-12-18T11:52:15;19.23;;;17.20;;
16862;SDS011;52193;48.216;-1.698;2022-12-18T11:54:49;19.15;;;16.98;;
16862;SDS011;52193;48.216;-1.698;2022-12-18T11:57:19;23.10;;;18.05;;
16862;SDS011;52193;48.216;-1.698;2022-12-18T12:00:03;18.95;;;16.98;;
16862;SDS011;52193;48.216;-1.698;2022-12-18T12:05:38;16.85;;;15.27;;
16862;SDS011;52193;48.216;-1.698;2022-12-18T12:08:14;18.45;;;16.55;;
16862;SDS011;52193;48.216;-1.698;2022-12-18T12:10:51;20.35;;;18.20;;
16862;SDS011;52193;48.216;-1.698;2022-12-18T12:13:28;19.23;;;17.23;;
16862;SDS011;52193;48.216;-1.698;2022-12-18T12:16:07;17.67;;;15.82;;
16862;SDS011;52193;48.216;-1.698;2022-12-18T12:18:44;18.05;;;15.93;;
16862;SDS011;52193;48.216;-1.698;2022-12-18T12:21:35;19.13;;;16.30;;
16862;SDS011;52193;48.216;-1.698;2022-12-18T12:24:10;17.20;;;15.40;;
16862;SDS011;52193;48.216;-1.698;2022-12-18T12:26:52;16.67;;;14.88;;
16862;SDS011;52193;48.216;-1.698;2022-12-18T12:29:30;18.25;;;16.30;;
16862;SDS011;52193;48.216;-1.698;2022-12-18T12:32:13;17.85;;;16.05;;
16862;SDS011;52193;48.216;-1.698;2022-12-18T12:34:51;18.80;;;17.00;;
16862;SDS011;52193;48.216;-1.698;2022-12-18T12:37:30;17.88;;;15.98;;
16862;SDS011;52193;48.216;-1.698;2022-12-18T12:40:06;17.45;;;15.63;;
16862;SDS011;52193;48.216;-1.698;2022-12-18T12:42:41;17.67;;;15.70;;
16862;SDS011;52193;48.216;-1.698;2022-12-18T12:45:30;19.02;;;17.20;;
16862;SDS011;52193;48.216;-1.698;2022-12-18T12:48:02;46.75;;;34.40;;
16862;SDS011;52193;48.216;-1.698;2022-12-18T12:50:33;18.42;;;16.52;;
16862;SDS011;52193;48.216;-1.698;2022-12-18T12:53:01;38.67;;;17.55;;
16862;SDS011;52193;48.216;-1.698;2022-12-18T12:55:35;19.65;;;17.55;;
16862;SDS011;52193;48.216;-1.698;2022-12-18T12:58:06;20.48;;;18.77;;
16862;SDS011;52193;48.216;-1.698;2022-12-18T13:00:39;20.63;;;18.92;;
16862;SDS011;52193;48.216;-1.698;2022-12-18T13:03:12;20.65;;;18.67;;
16862;SDS011;52193;48.216;-1.698;2022-12-18T13:05:56;21.30;;;19.10;;
16862;SDS011;52193;48.216;-1.698;2022-12-18T13:08:27;21.30;;;19.00;;
16862;SDS011;52193;48.216;-1.698;2022-12-18T13:10:56;20.17;;;18.10;;
16862;SDS011;52193;48.216;-1.698;2022-12-18T13:13:49;20.63;;;18.00;;
16862;SDS011;52193;48.216;-1.698;2022-12-18T13:16:18;21.17;;;19.08;;
16862;SDS011;52193;48.216;-1.698;2022-12-18T13:18:48;20.42;;;18.30;;
16862;SDS011;52193;48.216;-1.698;2022-12-18T13:21:18;24.42;;;22.23;;
16862;SDS011;52193;48.216;-1.698;2022-12-18T13:23:49;20.95;;;18.83;;
16862;SDS011;52193;48.216;-1.698;2022-12-18T13:29:03;20.95;;;18.95;;
16862;SDS011;52193;48.216;-1.698;2022-12-18T13:34:25;22.58;;;20.83;;
16862;SDS011;52193;48.216;-1.698;2022-12-18T13:36:54;22.83;;;20.50;;
16862;SDS011;52193;48.216;-1.698;2022-12-18T13:39:33;23.73;;;21.23;;
16862;SDS011;52193;48.216;-1.698;2022-12-18T13:45:40;22.00;;;19.65;;
16862;SDS011;52193;48.216;-1.698;2022-12-18T13:48:16;25.27;;;22.98;;
16862;SDS011;52193;48.216;-1.698;2022-12-18T13:50:55;22.92;;;20.88;;
16862;SDS011;52193;48.216;-1.698;2022-12-18T13:53:26;22.90;;;20.60;;
16862;SDS011;52193;48.216;-1.698;2022-12-18T13:55:56;27.30;;;19.85;;
16862;SDS011;52193;48.216;-1.698;2022-12-18T13:58:23;24.92;;;22.63;;
16862;SDS011;52193;48.216;-1.698;2022-12-18T14:00:51;24.30;;;22.10;;
16862;SDS011;52193;48.216;-1.698;2022-12-18T14:03:19;25.88;;;23.55;;
16862;SDS011;52193;48.216;-1.698;2022-12-18T14:05:52;24.40;;;22.05;;
16862;SDS011;52193;48.216;-1.698;2022-12-18T14:08:37;24.30;;;22.20;;
16862;SDS011;52193;48.216;-1.698;2022-12-18T14:11:05;25.10;;;22.77;;
16862;SDS011;52193;48.216;-1.698;2022-12-18T14:13:34;25.55;;;23.02;;
16862;SDS011;52193;48.216;-1.698;2022-12-18T14:16:05;26.33;;;23.85;;
16862;SDS011;52193;48.216;-1.698;2022-12-18T14:18:38;26.02;;;23.58;;
16862;SDS011;52193;48.216;-1.698;2022-12-18T14:21:16;26.17;;;23.77;;
16862;SDS011;52193;48.216;-1.698;2022-12-18T14:23:46;26.05;;;23.65;;
16862;SDS011;52193;48.216;-1.698;2022-12-18T14:26:20;26.10;;;23.70;;
16862;SDS011;52193;48.216;-1.698;2022-12-18T14:28:52;26.08;;;23.67;;
16862;SDS011;52193;48.216;-1.698;2022-12-18T14:31:22;25.58;;;23.40;;
16862;SDS011;52193;48.216;-1.698;2022-12-18T14:33:50;27.63;;;24.95;;
16862;SDS011;52193;48.216;-1.698;2022-12-18T14:36:18;27.83;;;25.13;;
16862;SDS011;52193;48.216;-1.698;2022-12-18T14:38:48;29.40;;;26.60;;
16862;SDS011;52193;48.216;-1.698;2022-12-18T14:41:17;27.92;;;25.40;;
16862;SDS011;52193;48.216;-1.698;2022-12-18T14:43:45;26.95;;;24.67;;